sensor_id;sensor_type;location;lat;lon;timestamp;P1;durP1;ratioP1;P2;durP2;ratioP2
35444;SDS011;21562;49.476;6.086;2022-12-11T00:01:53;23.50;;;10.90;;
35444;SDS011;21562;49.476;6.086;2022-12-11T00:04:18;23.23;;;11.20;;
35444;SDS011;21562;49.476;6.086;2022-12-11T00:06:44;26.65;;;10.40;;
35444;SDS011;21562;49.476;6.086;2022-12-11T00:09:09;21.73;;;9.07;;
35444;SDS011;21562;49.476;6.086;2022-12-11T00:11:35;28.38;;;10.68;;
35444;SDS011;21562;49.476;6.086;2022-12-11T00:14:01;22.98;;;10.25;;
35444;SDS011;21562;49.476;6.086;2022-12-11T00:16:27;20.73;;;9.80;;
35444;SDS011;21562;49.476;6.086;2022-12-11T00:18:53;22.60;;;9.90;;
35444;SDS011;21562;49.476;6.086;2022-12-11T00:21:19;21.02;;;9.70;;
35444;SDS011;21562;49.476;6.086;2022-12-11T00:23:44;24.45;;;10.13;;
35444;SDS011;21562;49.476;6.086;2022-12-11T00:26:13;25.88;;;10.48;;
35444;SDS011;21562;49.476;6.086;2022-12-11T00:28:40;28.00;;;11.60;;
35444;SDS011;21562;49.476;6.086;2022-12-11T00:31:08;25.95;;;9.93;;
35444;SDS011;21562;49.476;6.086;2022-12-11T00:33:37;22.58;;;10.18;;
35444;SDS011;21562;49.476;6.086;2022-12-11T00:36:08;28.25;;;11.52;;
35444;SDS011;21562;49.476;6.086;2022-12-11T00:38:36;22.67;;;10.48;;
35444;SDS011;21562;49.476;6.086;2022-12-11T00:41:02;27.63;;;11.35;;
35444;SDS011;21562;49.476;6.086;2022-12-11T00:43:27;24.33;;;10.60;;
35444;SDS011;21562;49.476;6.086;2022-12-11T00:45:53;21.67;;;10.13;;
35444;SDS011;21562;49.476;6.086;2022-12-11T00:48:18;22.08;;;9.55;;
35444;SDS011;21562;49.476;6.086;2022-12-11T00:50:44;20.20;;;9.60;;
35444;SDS011;21562;49.476;6.086;2022-12-11T00:53:10;22.10;;;9.43;;
35444;SDS011;21562;49.476;6.086;2022-12-11T00:55:36;21.73;;;9.52;;
35444;SDS011;21562;49.476;6.086;2022-12-11T00:58:03;20.65;;;9.43;;
35444;SDS011;21562;49.476;6.086;2022-12-11T01:00:29;21.50;;;10.23;;
35444;SDS011;21562;49.476;6.086;2022-12-11T01:02:55;20.90;;;9.98;;
35444;SDS011;21562;49.476;6.086;2022-12-11T01:05:21;23.17;;;9.55;;
35444;SDS011;21562;49.476;6.086;2022-12-11T01:07:46;27.13;;;11.15;;
35444;SDS011;21562;49.476;6.086;2022-12-11T01:10:12;23.40;;;10.93;;
35444;SDS011;21562;49.476;6.086;2022-12-11T01:15:21;20.60;;;8.85;;
35444;SDS011;21562;49.476;6.086;2022-12-11T01:17:49;25.98;;;10.55;;
35444;SDS011;21562;49.476;6.086;2022-12-11T01:20:15;23.33;;;10.38;;
35444;SDS011;21562;49.476;6.086;2022-12-11T01:22:41;25.25;;;10.50;;
35444;SDS011;21562;49.476;6.086;2022-12-11T01:25:07;20.08;;;9.20;;
35444;SDS011;21562;49.476;6.086;2022-12-11T01:27:36;21.55;;;9.32;;
35444;SDS011;21562;49.476;6.086;2022-12-11T01:30:03;24.85;;;10.07;;
35444;SDS011;21562;49.476;6.086;2022-12-11T01:32:33;24.00;;;9.90;;
35444;SDS011;21562;49.476;6.086;2022-12-11T01:35:01;25.92;;;9.18;;
35444;SDS011;21562;49.476;6.086;2022-12-11T01:37:28;21.92;;;10.13;;
35444;SDS011;21562;49.476;6.086;2022-12-11T01:39:54;25.55;;;9.57;;
35444;SDS011;21562;49.476;6.086;2022-12-11T01:42:20;28.13;;;11.48;;
35444;SDS011;21562;49.476;6.086;2022-12-11T01:47:11;27.70;;;10.88;;
35444;SDS011;21562;49.476;6.086;2022-12-11T01:49:38;21.05;;;9.23;;
35444;SDS011;21562;49.476;6.086;2022-12-11T01:52:05;24.85;;;10.35;;
35444;SDS011;21562;49.476;6.086;2022-12-11T01:54:35;27.60;;;10.55;;
35444;SDS011;21562;49.476;6.086;2022-12-11T01:57:02;27.08;;;10.25;;
35444;SDS011;21562;49.476;6.086;2022-12-11T01:59:30;24.67;;;10.52;;
35444;SDS011;21562;49.476;6.086;2022-12-11T02:02:13;25.38;;;10.43;;
35444;SDS011;21562;49.476;6.086;2022-12-11T02:04:42;29.83;;;10.52;;
35444;SDS011;21562;49.476;6.086;2022-12-11T02:07:09;31.20;;;10.20;;
35444;SDS011;21562;49.476;6.086;2022-12-11T02:09:36;26.77;;;10.27;;
35444;SDS011;21562;49.476;6.086;2022-12-11T02:12:14;24.38;;;9.82;;
35444;SDS011;21562;49.476;6.086;2022-12-11T02:15:00;26.75;;;10.13;;
35444;SDS011;21562;49.476;6.086;2022-12-11T02:17:46;27.90;;;10.77;;
35444;SDS011;21562;49.476;6.086;2022-12-11T02:20:21;25.75;;;9.82;;
35444;SDS011;21562;49.476;6.086;2022-12-11T02:26:02;23.58;;;9.18;;
35444;SDS011;21562;49.476;6.086;2022-12-11T02:28:47;30.63;;;10.82;;
35444;SDS011;21562;49.476;6.086;2022-12-11T02:31:23;34.80;;;12.13;;
35444;SDS011;21562;49.476;6.086;2022-12-11T02:34:02;35.70;;;11.82;;
35444;SDS011;21562;49.476;6.086;2022-12-11T02:36:39;29.13;;;10.70;;
35444;SDS011;21562;49.476;6.086;2022-12-11T02:39:10;32.08;;;10.68;;
35444;SDS011;21562;49.476;6.086;2022-12-11T02:41:38;28.90;;;10.23;;
35444;SDS011;21562;49.476;6.086;2022-12-11T02:44:07;30.50;;;10.60;;
35444;SDS011;21562;49.476;6.086;2022-12-11T02:46:36;34.90;;;10.73;;
35444;SDS011;21562;49.476;6.086;2022-12-11T02:49:04;30.30;;;11.00;;
35444;SDS011;21562;49.476;6.086;2022-12-11T02:51:32;29.95;;;10.73;;
35444;SDS011;21562;49.476;6.086;2022-12-11T02:54:02;31.40;;;11.43;;
35444;SDS011;21562;49.476;6.086;2022-12-11T02:56:32;31.50;;;11.15;;
35444;SDS011;21562;49.476;6.086;2022-12-11T02:59:12;33.92;;;11.98;;
35444;SDS011;21562;49.476;6.086;2022-12-11T03:01:42;35.67;;;12.00;;
35444;SDS011;21562;49.476;6.086;2022-12-11T03:04:07;32.53;;;11.80;;
35444;SDS011;21562;49.476;6.086;2022-12-11T03:06:39;29.25;;;11.30;;
35444;SDS011;21562;49.476;6.086;2022-12-11T03:09:08;27.58;;;10.93;;
35444;SDS011;21562;49.476;6.086;2022-12-11T03:11:34;28.73;;;10.65;;
35444;SDS011;21562;49.476;6.086;2022-12-11T03:14:00;28.95;;;10.40;;
35444;SDS011;21562;49.476;6.086;2022-12-11T03:16:36;28.17;;;10.63;;
35444;SDS011;21562;49.476;6.086;2022-12-11T03:22:06;32.28;;;11.23;;
35444;SDS011;21562;49.476;6.086;2022-12-11T03:24:55;29.98;;;10.32;;
35444;SDS011;21562;49.476;6.086;2022-12-11T03:27:29;25.98;;;9.95;;
35444;SDS011;21562;49.476;6.086;2022-12-11T03:30:02;28.50;;;10.77;;
35444;SDS011;21562;49.476;6.086;2022-12-11T03:32:30;32.35;;;11.68;;
35444;SDS011;21562;49.476;6.086;2022-12-11T03:35:07;31.40;;;11.60;;
35444;SDS011;21562;49.476;6.086;2022-12-11T03:37:39;36.40;;;12.05;;
35444;SDS011;21562;49.476;6.086;2022-12-11T03:40:08;27.73;;;11.57;;
35444;SDS011;21562;49.476;6.086;2022-12-11T03:42:37;31.90;;;11.30;;
35444;SDS011;21562;49.476;6.086;2022-12-11T03:45:04;30.30;;;11.60;;
35444;SDS011;21562;49.476;6.086;2022-12-11T03:47:32;32.58;;;12.52;;
35444;SDS011;21562;49.476;6.086;2022-12-11T03:49:58;31.95;;;12.40;;
35444;SDS011;21562;49.476;6.086;2022-12-11T03:52:28;34.25;;;13.10;;
35444;SDS011;21562;49.476;6.086;2022-12-11T03:54:55;29.88;;;11.57;;
35444;SDS011;21562;49.476;6.086;2022-12-11T03:57:25;29.10;;;11.20;;
35444;SDS011;21562;49.476;6.086;2022-12-11T03:59:55;34.97;;;12.65;;
35444;SDS011;21562;49.476;6.086;2022-12-11T04:02:21;37.30;;;12.60;;
35444;SDS011;21562;49.476;6.086;2022-12-11T04:04:47;34.60;;;12.13;;
35444;SDS011;21562;49.476;6.086;2022-12-11T04:07:12;34.60;;;12.60;;
35444;SDS011;21562;49.476;6.086;2022-12-11T04:09:38;31.05;;;11.73;;
35444;SDS011;21562;49.476;6.086;2022-12-11T04:12:04;33.35;;;12.50;;
35444;SDS011;21562;49.476;6.086;2022-12-11T04:14:30;37.50;;;12.55;;
35444;SDS011;21562;49.476;6.086;2022-12-11T04:17:14;29.38;;;11.30;;
35444;SDS011;21562;49.476;6.086;2022-12-11T04:19:59;30.15;;;11.38;;
35444;SDS011;21562;49.476;6.086;2022-12-11T04:22:43;29.67;;;11.25;;
35444;SDS011;21562;49.476;6.086;2022-12-11T04:25:28;29.05;;;9.68;;
35444;SDS011;21562;49.476;6.086;2022-12-11T04:27:53;29.45;;;10.45;;
35444;SDS011;21562;49.476;6.086;2022-12-11T04:30:20;28.38;;;9.07;;
35444;SDS011;21562;49.476;6.086;2022-12-11T04:32:48;26.13;;;9.73;;
35444;SDS011;21562;49.476;6.086;2022-12-11T04:35:13;27.33;;;9.70;;
35444;SDS011;21562;49.476;6.086;2022-12-11T04:37:40;19.05;;;8.52;;
35444;SDS011;21562;49.476;6.086;2022-12-11T04:40:06;24.65;;;10.30;;
35444;SDS011;21562;49.476;6.086;2022-12-11T04:42:35;25.30;;;9.15;;
35444;SDS011;21562;49.476;6.086;2022-12-11T04:45:01;23.23;;;9.48;;
35444;SDS011;21562;49.476;6.086;2022-12-11T04:47:28;27.70;;;10.77;;
35444;SDS011;21562;49.476;6.086;2022-12-11T04:49:53;22.50;;;9.15;;
35444;SDS011;21562;49.476;6.086;2022-12-11T04:52:19;27.17;;;10.82;;
35444;SDS011;21562;49.476;6.086;2022-12-11T04:54:44;25.80;;;9.80;;
35444;SDS011;21562;49.476;6.086;2022-12-11T04:57:10;22.65;;;8.80;;
35444;SDS011;21562;49.476;6.086;2022-12-11T04:59:36;21.40;;;8.32;;
35444;SDS011;21562;49.476;6.086;2022-12-11T05:02:02;23.17;;;9.27;;
35444;SDS011;21562;49.476;6.086;2022-12-11T05:04:32;21.63;;;8.85;;
35444;SDS011;21562;49.476;6.086;2022-12-11T05:06:58;25.77;;;9.30;;
35444;SDS011;21562;49.476;6.086;2022-12-11T05:09:24;21.45;;;8.75;;
35444;SDS011;21562;49.476;6.086;2022-12-11T05:11:51;22.92;;;8.90;;
35444;SDS011;21562;49.476;6.086;2022-12-11T05:14:17;23.33;;;9.05;;
35444;SDS011;21562;49.476;6.086;2022-12-11T05:16:42;20.90;;;8.80;;
35444;SDS011;21562;49.476;6.086;2022-12-11T05:19:08;24.13;;;8.50;;
35444;SDS011;21562;49.476;6.086;2022-12-11T05:21:34;19.00;;;8.20;;
35444;SDS011;21562;49.476;6.086;2022-12-11T05:24:00;27.08;;;9.68;;
35444;SDS011;21562;49.476;6.086;2022-12-11T05:26:26;18.85;;;8.07;;
35444;SDS011;21562;49.476;6.086;2022-12-11T05:28:52;22.20;;;9.18;;
35444;SDS011;21562;49.476;6.086;2022-12-11T05:31:20;23.83;;;8.93;;
35444;SDS011;21562;49.476;6.086;2022-12-11T05:33:49;26.58;;;9.90;;
35444;SDS011;21562;49.476;6.086;2022-12-11T05:36:23;25.40;;;9.32;;
35444;SDS011;21562;49.476;6.086;2022-12-11T05:38:50;30.15;;;9.68;;
35444;SDS011;21562;49.476;6.086;2022-12-11T05:41:17;29.23;;;9.90;;
35444;SDS011;21562;49.476;6.086;2022-12-11T05:43:44;29.27;;;9.32;;
35444;SDS011;21562;49.476;6.086;2022-12-11T05:46:14;32.85;;;10.40;;
35444;SDS011;21562;49.476;6.086;2022-12-11T05:48:42;31.63;;;11.27;;
35444;SDS011;21562;49.476;6.086;2022-12-11T05:51:10;29.52;;;10.05;;
35444;SDS011;21562;49.476;6.086;2022-12-11T05:53:36;25.77;;;10.27;;
35444;SDS011;21562;49.476;6.086;2022-12-11T05:56:03;28.40;;;9.93;;
35444;SDS011;21562;49.476;6.086;2022-12-11T05:58:31;31.73;;;11.18;;
35444;SDS011;21562;49.476;6.086;2022-12-11T06:00:57;26.42;;;9.63;;
35444;SDS011;21562;49.476;6.086;2022-12-11T06:03:23;27.00;;;10.07;;
35444;SDS011;21562;49.476;6.086;2022-12-11T06:05:49;27.85;;;9.98;;
35444;SDS011;21562;49.476;6.086;2022-12-11T06:08:15;25.52;;;9.18;;
35444;SDS011;21562;49.476;6.086;2022-12-11T06:10:49;27.77;;;9.75;;
35444;SDS011;21562;49.476;6.086;2022-12-11T06:13:15;25.70;;;9.77;;
35444;SDS011;21562;49.476;6.086;2022-12-11T06:15:41;28.90;;;10.63;;
35444;SDS011;21562;49.476;6.086;2022-12-11T06:18:07;29.33;;;9.88;;
35444;SDS011;21562;49.476;6.086;2022-12-11T06:20:33;26.17;;;9.68;;
35444;SDS011;21562;49.476;6.086;2022-12-11T06:22:59;31.10;;;10.98;;
35444;SDS011;21562;49.476;6.086;2022-12-11T06:25:25;22.67;;;9.50;;
35444;SDS011;21562;49.476;6.086;2022-12-11T06:27:51;27.20;;;9.68;;
35444;SDS011;21562;49.476;6.086;2022-12-11T06:30:17;32.20;;;11.43;;
35444;SDS011;21562;49.476;6.086;2022-12-11T06:32:43;29.10;;;10.95;;
35444;SDS011;21562;49.476;6.086;2022-12-11T06:35:09;29.20;;;10.32;;
35444;SDS011;21562;49.476;6.086;2022-12-11T06:37:35;30.88;;;10.73;;
35444;SDS011;21562;49.476;6.086;2022-12-11T06:40:02;27.17;;;10.25;;
35444;SDS011;21562;49.476;6.086;2022-12-11T06:42:29;26.73;;;10.93;;
35444;SDS011;21562;49.476;6.086;2022-12-11T06:44:55;33.97;;;11.98;;
35444;SDS011;21562;49.476;6.086;2022-12-11T06:47:23;30.58;;;10.32;;
35444;SDS011;21562;49.476;6.086;2022-12-11T06:49:53;29.40;;;10.77;;
35444;SDS011;21562;49.476;6.086;2022-12-11T06:52:23;28.83;;;10.25;;
35444;SDS011;21562;49.476;6.086;2022-12-11T06:54:49;30.40;;;10.20;;
35444;SDS011;21562;49.476;6.086;2022-12-11T06:57:16;33.80;;;11.30;;
35444;SDS011;21562;49.476;6.086;2022-12-11T06:59:42;29.73;;;11.68;;
35444;SDS011;21562;49.476;6.086;2022-12-11T07:02:14;32.78;;;11.18;;
35444;SDS011;21562;49.476;6.086;2022-12-11T07:04:41;35.80;;;12.23;;
35444;SDS011;21562;49.476;6.086;2022-12-11T07:07:07;29.17;;;11.05;;
35444;SDS011;21562;49.476;6.086;2022-12-11T07:09:33;33.03;;;11.00;;
35444;SDS011;21562;49.476;6.086;2022-12-11T07:11:59;34.58;;;10.25;;
35444;SDS011;21562;49.476;6.086;2022-12-11T07:14:24;34.28;;;10.75;;
35444;SDS011;21562;49.476;6.086;2022-12-11T07:16:50;32.22;;;11.10;;
35444;SDS011;21562;49.476;6.086;2022-12-11T07:19:15;30.38;;;9.65;;
35444;SDS011;21562;49.476;6.086;2022-12-11T07:21:41;33.63;;;12.73;;
35444;SDS011;21562;49.476;6.086;2022-12-11T07:24:07;36.22;;;12.77;;
35444;SDS011;21562;49.476;6.086;2022-12-11T07:26:32;34.08;;;13.65;;
35444;SDS011;21562;49.476;6.086;2022-12-11T07:28:59;30.83;;;11.27;;
35444;SDS011;21562;49.476;6.086;2022-12-11T07:31:26;34.53;;;12.18;;
35444;SDS011;21562;49.476;6.086;2022-12-11T07:33:57;36.42;;;12.20;;
35444;SDS011;21562;49.476;6.086;2022-12-11T07:36:24;36.90;;;11.15;;
35444;SDS011;21562;49.476;6.086;2022-12-11T07:38:51;41.95;;;12.43;;
35444;SDS011;21562;49.476;6.086;2022-12-11T07:41:17;38.78;;;12.90;;
35444;SDS011;21562;49.476;6.086;2022-12-11T07:43:43;36.83;;;12.15;;
35444;SDS011;21562;49.476;6.086;2022-12-11T07:46:10;33.50;;;11.82;;
35444;SDS011;21562;49.476;6.086;2022-12-11T07:48:39;34.92;;;12.55;;
35444;SDS011;21562;49.476;6.086;2022-12-11T07:51:13;41.03;;;12.80;;
35444;SDS011;21562;49.476;6.086;2022-12-11T07:53:52;34.22;;;12.55;;
35444;SDS011;21562;49.476;6.086;2022-12-11T07:56:19;39.80;;;12.15;;
35444;SDS011;21562;49.476;6.086;2022-12-11T07:58:46;36.20;;;12.25;;
35444;SDS011;21562;49.476;6.086;2022-12-11T08:01:15;40.78;;;13.77;;
35444;SDS011;21562;49.476;6.086;2022-12-11T08:03:48;42.03;;;12.57;;
35444;SDS011;21562;49.476;6.086;2022-12-11T08:06:14;39.40;;;12.70;;
35444;SDS011;21562;49.476;6.086;2022-12-11T08:08:41;42.00;;;13.65;;
35444;SDS011;21562;49.476;6.086;2022-12-11T08:11:08;41.50;;;13.13;;
35444;SDS011;21562;49.476;6.086;2022-12-11T08:13:35;42.50;;;13.23;;
35444;SDS011;21562;49.476;6.086;2022-12-11T08:16:02;43.25;;;13.80;;
35444;SDS011;21562;49.476;6.086;2022-12-11T08:18:29;39.63;;;12.68;;
35444;SDS011;21562;49.476;6.086;2022-12-11T08:20:54;40.55;;;11.68;;
35444;SDS011;21562;49.476;6.086;2022-12-11T08:23:20;34.38;;;11.80;;
35444;SDS011;21562;49.476;6.086;2022-12-11T08:25:46;44.83;;;13.50;;
35444;SDS011;21562;49.476;6.086;2022-12-11T08:28:11;38.15;;;12.10;;
35444;SDS011;21562;49.476;6.086;2022-12-11T08:30:37;45.92;;;13.10;;
35444;SDS011;21562;49.476;6.086;2022-12-11T08:33:04;46.88;;;13.15;;
35444;SDS011;21562;49.476;6.086;2022-12-11T08:35:30;40.50;;;13.30;;
35444;SDS011;21562;49.476;6.086;2022-12-11T08:37:56;39.85;;;12.85;;
35444;SDS011;21562;49.476;6.086;2022-12-11T08:40:22;45.30;;;14.05;;
35444;SDS011;21562;49.476;6.086;2022-12-11T08:42:47;33.10;;;12.23;;
35444;SDS011;21562;49.476;6.086;2022-12-11T08:45:13;34.85;;;12.65;;
35444;SDS011;21562;49.476;6.086;2022-12-11T08:47:38;36.60;;;11.85;;
35444;SDS011;21562;49.476;6.086;2022-12-11T08:50:04;35.97;;;12.48;;
35444;SDS011;21562;49.476;6.086;2022-12-11T08:52:30;38.35;;;12.73;;
35444;SDS011;21562;49.476;6.086;2022-12-11T08:54:59;35.88;;;12.13;;
35444;SDS011;21562;49.476;6.086;2022-12-11T08:57:24;40.35;;;12.60;;
35444;SDS011;21562;49.476;6.086;2022-12-11T08:59:51;39.45;;;13.25;;
35444;SDS011;21562;49.476;6.086;2022-12-11T09:02:17;44.38;;;13.98;;
35444;SDS011;21562;49.476;6.086;2022-12-11T09:04:42;37.47;;;12.88;;
35444;SDS011;21562;49.476;6.086;2022-12-11T09:07:08;39.83;;;14.02;;
35444;SDS011;21562;49.476;6.086;2022-12-11T09:09:33;40.70;;;14.18;;
35444;SDS011;21562;49.476;6.086;2022-12-11T09:11:59;38.45;;;14.02;;
35444;SDS011;21562;49.476;6.086;2022-12-11T09:14:25;36.30;;;12.55;;
35444;SDS011;21562;49.476;6.086;2022-12-11T09:16:51;45.40;;;16.13;;
35444;SDS011;21562;49.476;6.086;2022-12-11T09:19:17;44.85;;;15.23;;
35444;SDS011;21562;49.476;6.086;2022-12-11T09:21:42;51.10;;;18.90;;
35444;SDS011;21562;49.476;6.086;2022-12-11T09:24:09;34.78;;;12.75;;
35444;SDS011;21562;49.476;6.086;2022-12-11T09:26:35;36.63;;;14.13;;
35444;SDS011;21562;49.476;6.086;2022-12-11T09:29:02;41.90;;;13.43;;
35444;SDS011;21562;49.476;6.086;2022-12-11T09:31:30;35.88;;;12.70;;
35444;SDS011;21562;49.476;6.086;2022-12-11T09:34:01;37.72;;;14.13;;
35444;SDS011;21562;49.476;6.086;2022-12-11T09:36:28;37.60;;;13.50;;
35444;SDS011;21562;49.476;6.086;2022-12-11T09:38:54;36.00;;;12.93;;
35444;SDS011;21562;49.476;6.086;2022-12-11T09:43:47;38.15;;;14.13;;
35444;SDS011;21562;49.476;6.086;2022-12-11T09:46:36;32.25;;;12.30;;
35444;SDS011;21562;49.476;6.086;2022-12-11T09:49:03;31.23;;;11.77;;
35444;SDS011;21562;49.476;6.086;2022-12-11T09:51:57;34.75;;;13.05;;
35444;SDS011;21562;49.476;6.086;2022-12-11T09:54:44;34.20;;;11.82;;
35444;SDS011;21562;49.476;6.086;2022-12-11T10:00:03;35.58;;;13.73;;
35444;SDS011;21562;49.476;6.086;2022-12-11T10:02:48;34.80;;;12.38;;
35444;SDS011;21562;49.476;6.086;2022-12-11T10:08:48;26.17;;;11.20;;
35444;SDS011;21562;49.476;6.086;2022-12-11T10:17:09;31.73;;;12.05;;
35444;SDS011;21562;49.476;6.086;2022-12-11T10:19:35;27.65;;;10.88;;
35444;SDS011;21562;49.476;6.086;2022-12-11T10:22:02;27.95;;;11.77;;
35444;SDS011;21562;49.476;6.086;2022-12-11T10:24:39;23.77;;;9.73;;
35444;SDS011;21562;49.476;6.086;2022-12-11T10:27:12;26.30;;;10.40;;
35444;SDS011;21562;49.476;6.086;2022-12-11T10:29:47;25.23;;;10.38;;
35444;SDS011;21562;49.476;6.086;2022-12-11T10:32:24;29.20;;;10.77;;
35444;SDS011;21562;49.476;6.086;2022-12-11T10:35:00;27.02;;;11.18;;
35444;SDS011;21562;49.476;6.086;2022-12-11T10:37:29;25.80;;;10.30;;
35444;SDS011;21562;49.476;6.086;2022-12-11T10:39:54;24.77;;;9.77;;
35444;SDS011;21562;49.476;6.086;2022-12-11T10:42:20;24.52;;;10.02;;
35444;SDS011;21562;49.476;6.086;2022-12-11T10:45:00;24.67;;;9.50;;
35444;SDS011;21562;49.476;6.086;2022-12-11T10:47:28;20.77;;;9.40;;
35444;SDS011;21562;49.476;6.086;2022-12-11T10:49:57;24.77;;;10.27;;
35444;SDS011;21562;49.476;6.086;2022-12-11T10:52:25;26.80;;;12.02;;
35444;SDS011;21562;49.476;6.086;2022-12-11T10:57:39;23.70;;;10.02;;
35444;SDS011;21562;49.476;6.086;2022-12-11T11:00:07;24.45;;;9.73;;
35444;SDS011;21562;49.476;6.086;2022-12-11T11:05:35;20.92;;;9.15;;
35444;SDS011;21562;49.476;6.086;2022-12-11T11:08:17;23.75;;;9.88;;
35444;SDS011;21562;49.476;6.086;2022-12-11T11:10:49;24.98;;;10.50;;
35444;SDS011;21562;49.476;6.086;2022-12-11T11:13:23;27.88;;;10.05;;
35444;SDS011;21562;49.476;6.086;2022-12-11T11:16:00;30.25;;;11.30;;
35444;SDS011;21562;49.476;6.086;2022-12-11T11:18:27;24.30;;;9.63;;
35444;SDS011;21562;49.476;6.086;2022-12-11T11:20:53;24.27;;;9.80;;
35444;SDS011;21562;49.476;6.086;2022-12-11T11:23:19;28.65;;;11.80;;
35444;SDS011;21562;49.476;6.086;2022-12-11T11:25:50;30.85;;;11.35;;
35444;SDS011;21562;49.476;6.086;2022-12-11T11:28:40;24.48;;;9.70;;
35444;SDS011;21562;49.476;6.086;2022-12-11T11:31:07;24.05;;;10.88;;
35444;SDS011;21562;49.476;6.086;2022-12-11T11:33:36;28.73;;;11.07;;
35444;SDS011;21562;49.476;6.086;2022-12-11T11:36:20;28.48;;;10.55;;
35444;SDS011;21562;49.476;6.086;2022-12-11T11:49:43;24.08;;;10.10;;
35444;SDS011;21562;49.476;6.086;2022-12-11T11:55:13;31.23;;;11.50;;
35444;SDS011;21562;49.476;6.086;2022-12-11T12:00:24;28.90;;;12.80;;
35444;SDS011;21562;49.476;6.086;2022-12-11T12:02:55;35.05;;;12.98;;
35444;SDS011;21562;49.476;6.086;2022-12-11T12:06:08;35.92;;;12.80;;
35444;SDS011;21562;49.476;6.086;2022-12-11T12:19:26;36.97;;;13.88;;
35444;SDS011;21562;49.476;6.086;2022-12-11T12:21:55;30.15;;;12.90;;
35444;SDS011;21562;49.476;6.086;2022-12-11T12:24:35;33.00;;;12.88;;
35444;SDS011;21562;49.476;6.086;2022-12-11T12:27:27;22.23;;;9.48;;
35444;SDS011;21562;49.476;6.086;2022-12-11T12:30:04;25.60;;;11.73;;
35444;SDS011;21562;49.476;6.086;2022-12-11T12:46:10;29.77;;;11.32;;
35444;SDS011;21562;49.476;6.086;2022-12-11T12:48:45;26.88;;;11.18;;
35444;SDS011;21562;49.476;6.086;2022-12-11T12:51:12;29.52;;;11.65;;
35444;SDS011;21562;49.476;6.086;2022-12-11T12:53:39;31.95;;;11.65;;
35444;SDS011;21562;49.476;6.086;2022-12-11T12:56:08;35.05;;;11.80;;
35444;SDS011;21562;49.476;6.086;2022-12-11T12:58:43;30.20;;;10.55;;
35444;SDS011;21562;49.476;6.086;2022-12-11T13:01:17;32.80;;;11.27;;
35444;SDS011;21562;49.476;6.086;2022-12-11T13:06:15;31.75;;;11.88;;
35444;SDS011;21562;49.476;6.086;2022-12-11T13:08:57;34.38;;;11.73;;
35444;SDS011;21562;49.476;6.086;2022-12-11T13:11:34;30.52;;;12.45;;
35444;SDS011;21562;49.476;6.086;2022-12-11T13:14:01;32.83;;;14.02;;
35444;SDS011;21562;49.476;6.086;2022-12-11T13:16:35;26.70;;;11.73;;
35444;SDS011;21562;49.476;6.086;2022-12-11T13:24:32;28.13;;;10.63;;
35444;SDS011;21562;49.476;6.086;2022-12-11T13:27:21;24.63;;;10.60;;
35444;SDS011;21562;49.476;6.086;2022-12-11T13:29:51;29.13;;;10.48;;
35444;SDS011;21562;49.476;6.086;2022-12-11T13:32:53;26.20;;;10.57;;
35444;SDS011;21562;49.476;6.086;2022-12-11T13:35:28;33.08;;;11.30;;
35444;SDS011;21562;49.476;6.086;2022-12-11T13:37:58;24.88;;;10.30;;
35444;SDS011;21562;49.476;6.086;2022-12-11T13:40:39;29.10;;;10.32;;
35444;SDS011;21562;49.476;6.086;2022-12-11T13:43:18;27.50;;;10.90;;
35444;SDS011;21562;49.476;6.086;2022-12-11T13:45:51;27.60;;;10.98;;
35444;SDS011;21562;49.476;6.086;2022-12-11T13:48:31;25.83;;;10.18;;
35444;SDS011;21562;49.476;6.086;2022-12-11T13:51:03;28.70;;;10.52;;
35444;SDS011;21562;49.476;6.086;2022-12-11T13:53:30;24.65;;;9.70;;
35444;SDS011;21562;49.476;6.086;2022-12-11T13:58:32;28.48;;;11.82;;
35444;SDS011;21562;49.476;6.086;2022-12-11T14:03:40;32.13;;;11.27;;
35444;SDS011;21562;49.476;6.086;2022-12-11T14:06:12;26.20;;;11.35;;
35444;SDS011;21562;49.476;6.086;2022-12-11T14:08:39;35.40;;;12.55;;
35444;SDS011;21562;49.476;6.086;2022-12-11T14:11:11;29.08;;;10.48;;
35444;SDS011;21562;49.476;6.086;2022-12-11T14:13:46;25.58;;;10.63;;
35444;SDS011;21562;49.476;6.086;2022-12-11T14:16:13;28.77;;;10.82;;
35444;SDS011;21562;49.476;6.086;2022-12-11T14:18:46;32.10;;;11.20;;
35444;SDS011;21562;49.476;6.086;2022-12-11T14:21:18;28.65;;;10.80;;
35444;SDS011;21562;49.476;6.086;2022-12-11T14:23:52;26.17;;;10.35;;
35444;SDS011;21562;49.476;6.086;2022-12-11T14:26:23;27.38;;;10.70;;
35444;SDS011;21562;49.476;6.086;2022-12-11T14:28:54;29.30;;;10.57;;
35444;SDS011;21562;49.476;6.086;2022-12-11T14:34:01;26.52;;;10.98;;
35444;SDS011;21562;49.476;6.086;2022-12-11T14:36:35;27.65;;;10.25;;
35444;SDS011;21562;49.476;6.086;2022-12-11T14:39:02;26.60;;;10.38;;
35444;SDS011;21562;49.476;6.086;2022-12-11T14:44:40;31.42;;;11.15;;
35444;SDS011;21562;49.476;6.086;2022-12-11T14:47:15;32.85;;;12.48;;
35444;SDS011;21562;49.476;6.086;2022-12-11T14:52:17;27.75;;;10.90;;
35444;SDS011;21562;49.476;6.086;2022-12-11T14:54:48;29.60;;;11.60;;
35444;SDS011;21562;49.476;6.086;2022-12-11T14:57:20;33.85;;;12.45;;
35444;SDS011;21562;49.476;6.086;2022-12-11T14:59:49;32.35;;;11.45;;
35444;SDS011;21562;49.476;6.086;2022-12-11T15:02:22;29.42;;;12.35;;
35444;SDS011;21562;49.476;6.086;2022-12-11T15:07:34;27.38;;;10.73;;
35444;SDS011;21562;49.476;6.086;2022-12-11T15:10:01;33.97;;;12.52;;
35444;SDS011;21562;49.476;6.086;2022-12-11T15:12:28;30.73;;;11.70;;
35444;SDS011;21562;49.476;6.086;2022-12-11T15:14:54;30.52;;;11.25;;
35444;SDS011;21562;49.476;6.086;2022-12-11T15:17:25;30.50;;;11.77;;
35444;SDS011;21562;49.476;6.086;2022-12-11T15:19:52;29.40;;;11.90;;
35444;SDS011;21562;49.476;6.086;2022-12-11T15:22:21;32.55;;;11.50;;
35444;SDS011;21562;49.476;6.086;2022-12-11T15:24:55;30.23;;;11.40;;
35444;SDS011;21562;49.476;6.086;2022-12-11T15:27:29;35.30;;;12.30;;
35444;SDS011;21562;49.476;6.086;2022-12-11T15:30:19;35.63;;;11.40;;
35444;SDS011;21562;49.476;6.086;2022-12-11T15:33:02;37.60;;;12.48;;
35444;SDS011;21562;49.476;6.086;2022-12-11T15:35:28;32.83;;;11.80;;
35444;SDS011;21562;49.476;6.086;2022-12-11T15:37:54;28.55;;;11.38;;
35444;SDS011;21562;49.476;6.086;2022-12-11T15:40:22;32.65;;;11.25;;
35444;SDS011;21562;49.476;6.086;2022-12-11T15:42:48;31.63;;;12.07;;
35444;SDS011;21562;49.476;6.086;2022-12-11T15:45:15;35.85;;;13.23;;
35444;SDS011;21562;49.476;6.086;2022-12-11T15:47:43;29.90;;;11.93;;
35444;SDS011;21562;49.476;6.086;2022-12-11T15:50:17;33.95;;;12.40;;
35444;SDS011;21562;49.476;6.086;2022-12-11T15:52:43;31.88;;;13.57;;
35444;SDS011;21562;49.476;6.086;2022-12-11T15:55:10;31.95;;;13.10;;
35444;SDS011;21562;49.476;6.086;2022-12-11T15:57:36;32.70;;;13.15;;
35444;SDS011;21562;49.476;6.086;2022-12-11T16:00:04;38.40;;;13.88;;
35444;SDS011;21562;49.476;6.086;2022-12-11T16:02:31;38.78;;;15.38;;
35444;SDS011;21562;49.476;6.086;2022-12-11T16:04:56;34.88;;;14.68;;
35444;SDS011;21562;49.476;6.086;2022-12-11T16:07:23;36.65;;;14.23;;
35444;SDS011;21562;49.476;6.086;2022-12-11T16:09:50;36.42;;;15.20;;
35444;SDS011;21562;49.476;6.086;2022-12-11T16:12:16;38.13;;;14.70;;
35444;SDS011;21562;49.476;6.086;2022-12-11T16:14:43;37.03;;;14.10;;